sensor_id;sensor_type;location;lat;lon;timestamp;pressure;altitude;pressure_sealevel;temperature;humidity
47710;BME280;33473;51.640;5.892;2023-04-25T00:10:14;100900;;;10.5;57.0
47710;BME280;33473;51.640;5.892;2023-04-25T00:23:34;100900;;;11.1;55.0
47710;BME280;33473;51.640;5.892;2023-04-25T00:36:54;101000;;;11.4;55.0
47710;BME280;33473;51.640;5.892;2023-04-25T00:50:13;100900;;;11.4;55.0
47710;BME280;33473;51.640;5.892;2023-04-25T01:03:33;100900;;;11.3;56.0
47710;BME280;33473;51.640;5.892;2023-04-25T01:16:53;101000;;;11.5;55.0
47710;BME280;33473;51.640;5.892;2023-04-25T01:30:13;100900;;;11.4;54.0
47710;BME280;33473;51.640;5.892;2023-04-25T01:43:32;101000;;;11.4;54.0
47710;BME280;33473;51.640;5.892;2023-04-25T01:56:52;101000;;;10.7;55.0
47710;BME280;33473;51.640;5.892;2023-04-25T02:10:11;101000;;;10.4;57.0
47710;BME280;33473;51.640;5.892;2023-04-25T02:23:31;101000;;;10.3;57.0
47710;BME280;33473;51.640;5.892;2023-04-25T02:36:51;101000;;;10.5;57.0
47710;BME280;33473;51.640;5.892;2023-04-25T02:50:11;101000;;;10.7;55.0
47710;BME280;33473;51.640;5.892;2023-04-25T03:03:30;101000;;;10.0;56.0
47710;BME280;33473;51.640;5.892;2023-04-25T03:16:50;101000;;;10.3;55.0
47710;BME280;33473;51.640;5.892;2023-04-25T03:30:10;101000;;;10.2;54.0
47710;BME280;33473;51.640;5.892;2023-04-25T03:43:29;101000;;;10.2;53.0
47710;BME280;33473;51.640;5.892;2023-04-25T03:56:49;101000;;;10.0;55.0
47710;BME280;33473;51.640;5.892;2023-04-25T04:10:09;101000;;;10.2;54.0
47710;BME280;33473;51.640;5.892;2023-04-25T04:23:28;101000;;;10.4;54.0
47710;BME280;33473;51.640;5.892;2023-04-25T04:36:48;101000;;;10.4;54.0
47710;BME280;33473;51.640;5.892;2023-04-25T04:50:08;101100;;;10.4;54.0
47710;BME280;33473;51.640;5.892;2023-04-25T05:03:27;101100;;;10.4;53.0
47710;BME280;33473;51.640;5.892;2023-04-25T05:16:47;101100;;;10.4;54.0
47710;BME280;33473;51.640;5.892;2023-04-25T05:30:07;101100;;;10.4;55.0
47710;BME280;33473;51.640;5.892;2023-04-25T05:43:26;101100;;;10.8;54.0
47710;BME280;33473;51.640;5.892;2023-04-25T05:56:46;101100;;;10.6;55.0
47710;BME280;33473;51.640;5.892;2023-04-25T06:10:08;101100;;;11.0;54.0
47710;BME280;33473;51.640;5.892;2023-04-25T06:23:28;101200;;;11.6;52.0
47710;BME280;33473;51.640;5.892;2023-04-25T06:36:48;101200;;;11.2;52.0
47710;BME280;33473;51.640;5.892;2023-04-25T06:50:07;101200;;;11.2;52.0
47710;BME280;33473;51.640;5.892;2023-04-25T07:03:27;101200;;;11.6;50.0
47710;BME280;33473;51.640;5.892;2023-04-25T07:16:47;101200;;;13.6;46.0
47710;BME280;33473;51.640;5.892;2023-04-25T07:30:06;101200;;;13.8;47.0
47710;BME280;33473;51.640;5.892;2023-04-25T07:43:26;101200;;;14.0;42.0
47710;BME280;33473;51.640;5.892;2023-04-25T07:56:45;101200;;;15.7;42.0
47710;BME280;33473;51.640;5.892;2023-04-25T08:10:05;101300;;;14.7;42.0
47710;BME280;33473;51.640;5.892;2023-04-25T08:23:25;101300;;;13.6;44.0
47710;BME280;33473;51.640;5.892;2023-04-25T08:36:44;101300;;;14.8;41.0
47710;BME280;33473;51.640;5.892;2023-04-25T08:50:04;101300;;;13.7;43.0
47710;BME280;33473;51.640;5.892;2023-04-25T09:03:24;101300;;;14.7;40.0
47710;BME280;33473;51.640;5.892;2023-04-25T09:16:43;101300;;;14.4;40.0
47710;BME280;33473;51.640;5.892;2023-04-25T09:30:03;101400;;;14.1;41.0
47710;BME280;33473;51.640;5.892;2023-04-25T09:43:23;101400;;;12.9;43.0
47710;BME280;33473;51.640;5.892;2023-04-25T09:56:42;101400;;;12.7;44.0
47710;BME280;33473;51.640;5.892;2023-04-25T10:10:02;101400;;;13.8;44.0
47710;BME280;33473;51.640;5.892;2023-04-25T10:23:22;101400;;;14.9;44.0
47710;BME280;33473;51.640;5.892;2023-04-25T10:36:41;101400;;;16.1;42.0
47710;BME280;33473;51.640;5.892;2023-04-25T10:50:01;101400;;;14.0;41.0
47710;BME280;33473;51.640;5.892;2023-04-25T11:03:21;101400;;;12.7;42.0
47710;BME280;33473;51.640;5.892;2023-04-25T11:16:40;101400;;;13.9;42.0
47710;BME280;33473;51.640;5.892;2023-04-25T11:30:00;101400;;;15.0;37.0
47710;BME280;33473;51.640;5.892;2023-04-25T11:43:20;101400;;;12.5;43.0
47710;BME280;33473;51.640;5.892;2023-04-25T11:56:39;101400;;;12.4;43.0
47710;BME280;33473;51.640;5.892;2023-04-25T12:09:59;101400;;;13.7;40.0
47710;BME280;33473;51.640;5.892;2023-04-25T12:23:19;101400;;;15.5;38.0
47710;BME280;33473;51.640;5.892;2023-04-25T12:36:38;101400;;;14.8;34.0
47710;BME280;33473;51.640;5.892;2023-04-25T12:49:58;101500;;;15.6;35.0
47710;BME280;33473;51.640;5.892;2023-04-25T13:03:18;101400;;;15.8;33.0
47710;BME280;33473;51.640;5.892;2023-04-25T13:16:38;101500;;;13.4;40.0
47710;BME280;33473;51.640;5.892;2023-04-25T13:29:57;101500;;;13.2;44.0
47710;BME280;33473;51.640;5.892;2023-04-25T13:43:17;101500;;;14.0;41.0
47710;BME280;33473;51.640;5.892;2023-04-25T13:56:37;101500;;;15.3;37.0
47710;BME280;33473;51.640;5.892;2023-04-25T14:09:56;101500;;;12.9;42.0
47710;BME280;33473;51.640;5.892;2023-04-25T14:23:16;101500;;;13.8;46.0
47710;BME280;33473;51.640;5.892;2023-04-25T14:36:36;101500;;;15.9;36.0
47710;BME280;33473;51.640;5.892;2023-04-25T14:49:55;101500;;;16.5;32.0
47710;BME280;33473;51.640;5.892;2023-04-25T15:03:15;101500;;;15.9;29.0
47710;BME280;33473;51.640;5.892;2023-04-25T15:16:35;101500;;;15.0;34.0
47710;BME280;33473;51.640;5.892;2023-04-25T15:29:54;101500;;;14.4;36.0
47710;BME280;33473;51.640;5.892;2023-04-25T15:43:14;101500;;;15.4;34.0
47710;BME280;33473;51.640;5.892;2023-04-25T15:56:34;101500;;;16.1;36.0
47710;BME280;33473;51.640;5.892;2023-04-25T16:09:53;101500;;;14.6;36.0
47710;BME280;33473;51.640;5.892;2023-04-25T16:23:13;101600;;;13.9;37.0
47710;BME280;33473;51.640;5.892;2023-04-25T16:36:33;101600;;;13.5;40.0
47710;BME280;33473;51.640;5.892;2023-04-25T16:49:52;101600;;;13.9;40.0
47710;BME280;33473;51.640;5.892;2023-04-25T17:03:12;101600;;;13.2;40.0
47710;BME280;33473;51.640;5.892;2023-04-25T17:16:32;101600;;;13.5;40.0
47710;BME280;33473;51.640;5.892;2023-04-25T17:29:52;101600;;;14.3;36.0
47710;BME280;33473;51.640;5.892;2023-04-25T17:43:11;101600;;;14.1;39.0
47710;BME280;33473;51.640;5.892;2023-04-25T17:56:31;101600;;;13.6;38.0
47710;BME280;33473;51.640;5.892;2023-04-25T18:09:51;101600;;;13.6;39.0
47710;BME280;33473;51.640;5.892;2023-04-25T18:23:10;101600;;;13.0;40.0
47710;BME280;33473;51.640;5.892;2023-04-25T18:36:30;101700;;;13.0;41.0
47710;BME280;33473;51.640;5.892;2023-04-25T18:49:50;101700;;;12.6;40.0
47710;BME280;33473;51.640;5.892;2023-04-25T19:03:09;101700;;;12.6;41.0
47710;BME280;33473;51.640;5.892;2023-04-25T19:16:29;101700;;;12.6;41.0
47710;BME280;33473;51.640;5.892;2023-04-25T19:29:49;101700;;;12.1;42.0
47710;BME280;33473;51.640;5.892;2023-04-25T19:43:08;101700;;;11.8;44.0
47710;BME280;33473;51.640;5.892;2023-04-25T19:56:28;101700;;;11.4;44.0
47710;BME280;33473;51.640;5.892;2023-04-25T20:09:48;101700;;;11.1;45.0
47710;BME280;33473;51.640;5.892;2023-04-25T20:23:07;101700;;;10.8;45.0
47710;BME280;33473;51.640;5.892;2023-04-25T20:36:27;101700;;;10.5;46.0
47710;BME280;33473;51.640;5.892;2023-04-25T20:49:47;101700;;;10.2;47.0
47710;BME280;33473;51.640;5.892;2023-04-25T21:03:06;101700;;;10.0;48.0
47710;BME280;33473;51.640;5.892;2023-04-25T21:16:26;101800;;;10.0;47.0
47710;BME280;33473;51.640;5.892;2023-04-25T21:29:46;101700;;;9.8;47.0
47710;BME280;33473;51.640;5.892;2023-04-25T21:43:05;101800;;;9.8;47.0
47710;BME280;33473;51.640;5.892;2023-04-25T21:56:25;101800;;;9.8;47.0
47710;BME280;33473;51.640;5.892;2023-04-25T22:09:45;101800;;;9.5;47.0
47710;BME280;33473;51.640;5.892;2023-04-25T22:23:04;101800;;;9.4;47.0
47710;BME280;33473;51.640;5.892;2023-04-25T22:36:24;101800;;;9.3;47.0
47710;BME280;33473;51.640;5.892;2023-04-25T22:49:44;101800;;;9.0;48.0
47710;BME280;33473;51.640;5.892;2023-04-25T23:03:03;101800;;;8.8;48.0
47710;BME280;33473;51.640;5.892;2023-04-25T23:16:23;101800;;;8.6;49.0
47710;BME280;33473;51.640;5.892;2023-04-25T23:29:43;101800;;;8.5;50.0
47710;BME280;33473;51.640;5.892;2023-04-25T23:43:02;101800;;;8.3;50.0
47710;BME280;33473;51.640;5.892;2023-04-25T23:56:22;101800;;;8.2;50.0
